ADDS METAR Data INFO
IDs: Format: Raw Decoded Include TAF

Data at: 0200 UTC 18 Oct 2017

KLEB 180153Z 19008KT 10SM CLR 07/M01 A3016 RMK AO2 SLP217 T00721011
KLEB 180053Z 20007KT 10SM CLR 06/M01 A3015 RMK AO2 SLP216 T00611011
KLEB 172353Z 18009KT 10SM CLR 07/M01 A3015 RMK AO2 SLP217 T00671011 10150 20067 50007
KLEB 172253Z 19007KT 10SM CLR 11/M02 A3016 RMK AO2 SLP216 T01061022
KLEB 172153Z 20008KT 10SM CLR 12/M02 A3014 RMK AO2 SLP209 T01221022
KLEB 172053Z 21006KT 10SM CLR 14/M03 A3013 RMK AO2 SLP206 T01441033 56019
KLEB 171953Z 20011KT 180V240 10SM CLR 15/M03 A3015 RMK AO2 SLP212 T01501033
KLEB 171853Z 20007KT 160V250 10SM CLR 14/M03 A3016 RMK AO2 SLP216 T01441028
KLEB 171753Z 20006KT 10SM CLR 13/M02 A3019 RMK AO2 SLP225 T01281017 10128 21011 58031
KLEB 171653Z 00000KT 10SM CLR 11/M02 A3023 RMK AO2 SLP240 T01061022
KLEB 171553Z VRB03KT 10SM CLR 09/M02 A3027 RMK AO2 SLP253 T00941017
KLEB 171453Z 00000KT 10SM CLR 07/M02 A3028 RMK AO2 SLP256 T00721017 58005
KLEB 171353Z 00000KT 10SM CLR 05/00 A3030 RMK AO2 SLP263 T00500000
KLEB 171253Z 00000KT 10SM CLR 02/00 A3031 RMK AO2 SLP267 T00170000
KLEB 171153Z 00000KT 10SM CLR M01/M02 A3029 RMK AO2 SLP265 I1000 I6000 T10111022 10011 21028 53017
KLEB 171053Z 00000KT 10SM CLR M02/M03 A3028 RMK AO2 SLP260 I1000 T10171028
KLEB 171016Z 17003KT 10SM SCT001 M02/M03 A3027 RMK AO2 T10171028
KLEB 170953Z AUTO 00000KT 10SM CLR M02/M03 A3026 RMK AO2 SLP253 I1000 T10171028
KLEB 170853Z AUTO 00000KT 10SM CLR M01/M02 A3024 RMK AO2 SLP246 T10111022 53018
KLEB 170753Z AUTO 00000KT 10SM CLR 00/M01 A3022 RMK AO2 SLP238 T00001011
KLEB 170653Z AUTO 00000KT 10SM CLR 01/M01 A3020 RMK AO2 SLP232 T00061011
KLEB 170553Z AUTO 00000KT 10SM CLR 01/00 A3019 RMK AO2 SLP227 T00110000 10072 20006 53007
KLEB 170453Z AUTO 00000KT 10SM CLR 02/00 A3017 RMK AO2 SLP220 T00170000 401830017
KLEB 170353Z AUTO 00000KT 10SM FEW050 03/01 A3017 RMK AO2 SLP218 T00280006
KLEB 170253Z AUTO 32004KT 10SM BKN050 06/01 A3017 RMK AO2 SLP219 T00610006 51015
KLEB 170153Z 32005KT 10SM OVC050 07/01 A3016 RMK AO2 SLP216 T00670006
KLEB 170053Z 32003KT 10SM OVC055 07/00 A3014 RMK AO2 SLP210 T00670000
KLEB 162353Z 35006KT 10SM OVC060 07/M01 A3012 RMK AO2 SLP202 T00721006 10100 20072 51025
KLEB 162253Z 35008KT 10SM FEW038 SCT055 07/00 A3011 RMK AO2 SLP199 T00720000
KLEB 162153Z 01012G16KT 10SM OVC034 08/01 A3009 RMK AO2 SLP188 T00830006
KLEB 162053Z 02008KT 10SM OVC034 09/01 A3005 RMK AO2 SLP173 T00940011 53008
KLEB 161953Z 02011KT 10SM OVC033 10/02 A3003 RMK AO2 SLP167 T01000017
KLEB 161853Z 33011G19KT 10SM OVC032 09/01 A3002 RMK AO2 SLP161 T00940011
KLEB 161753Z 32009G18KT 10SM OVC032 10/02 A3002 RMK AO2 SLP163 T01000017 10106 20089 53010
KLEB 161653Z 31011G18KT 10SM OVC032 11/02 A3000 RMK AO2 SLP157 T01060017
KLEB 161553Z 32011G16KT 10SM OVC031 10/02 A3001 RMK AO2 SLP157 T01000022
KLEB 161507Z 02012G18KT 10SM OVC030 10/02 A3000 RMK AO2 T01000017
KLEB 161453Z 36010KT 10SM OVC027 09/02 A2999 RMK AO2 SLP152 T00940017 51021